Athens, Pennsylvania
Current Conditions -  °F | °C
As of 9:37 AM on Tuesday 27 Jan 2015 (Local Time) from KELM Reporting Station
Broken Clouds Broken Clouds  
Wind Chill:   Ceiling: 2300
Heat Index: 18°   Visibility: 9mi
Dew Point: 10°   Wind: 8mph
Humidity: 71%   Direction: 330°NNW
Pressure: 29.88"   Gusts: NA
Location:  41.96°N, 76.52°W
Report Text: KELM 271437Z 33007KT 9SM BKN023 BKN090 M08/M12 A2988 RMK AO2 T10781122
Loading
Personal Weather Stations






























Interactive Weather Map New forecast layout! Learn more

10-Day Weather Forecast

Advertisements
Track Severe Weather on mobile